LFRS 151830Z AUTO 14004KT CAVOK 10/06 Q1026 NOSIG